< < Back
Terminal Aerodrome Forecast


Current Version              Previous Versions:   1  2  3  4  5  6  7  8  9  

Terminal Aerodrome Forecast

342
FTUS42 KTAE 252324
TAFABY
TAF
KABY 252324Z 2600/2624 VRB05KT P6SM SCT250=

Latest METAR

963
SAUS70 KWBC 261800 RRA
MTRABY
METAR KABY 261753Z 09005KT 10SM FEW055 30/16 A3016 RMK AO2 SLP210
T03000161 10306 20211 58017


USA.gov is the U.S. government's official web portal to all federal, state and local government web resources and services.